createdAt,value
2022-09-22T00:01:05.526Z,5.28
2022-09-22T00:03:36.920Z,6.38
2022-09-22T00:06:05.117Z,8.30
2022-09-22T00:08:33.465Z,7.97
2022-09-22T00:11:18.604Z,9.30
2022-09-22T00:13:51.190Z,9.40
2022-09-22T00:16:21.019Z,11.95
2022-09-22T00:18:47.659Z,9.05
2022-09-22T00:21:17.256Z,9.40
2022-09-22T00:23:44.188Z,9.65
2022-09-22T00:26:14.219Z,7.45
2022-09-22T00:28:41.685Z,11.15
2022-09-22T00:31:14.142Z,8.13
2022-09-22T00:33:41.436Z,7.90
2022-09-22T00:36:09.374Z,6.90
2022-09-22T00:38:38.299Z,10.73
2022-09-22T00:41:06.169Z,8.80
2022-09-22T00:43:37.651Z,10.18
2022-09-22T00:46:24.220Z,9.27
2022-09-22T00:49:05.404Z,8.50
2022-09-22T00:51:35.222Z,6.40
2022-09-22T00:54:06.003Z,8.05
2022-09-22T00:56:49.963Z,7.07
2022-09-22T00:59:19.251Z,6.45
2022-09-22T01:01:45.976Z,7.22
2022-09-22T01:04:12.842Z,8.45
2022-09-22T01:06:40.516Z,5.03
2022-09-22T01:09:08.579Z,7.75
2022-09-22T01:11:37.990Z,5.97
2022-09-22T01:14:13.398Z,8.48
2022-09-22T01:16:42.991Z,8.93
2022-09-22T01:19:51.622Z,5.40
2022-09-22T01:22:55.858Z,7.70
2022-09-22T01:25:25.273Z,6.70
2022-09-22T01:28:20.302Z,7.32
2022-09-22T01:31:00.363Z,8.35
2022-09-22T01:33:36.049Z,8.20
2022-09-22T01:36:21.168Z,6.22
2022-09-22T01:39:04.628Z,6.50
2022-09-22T01:41:45.007Z,7.47
2022-09-22T01:44:28.693Z,4.38
2022-09-22T01:47:15.216Z,7.43
2022-09-22T01:49:47.912Z,6.57
2022-09-22T01:52:23.442Z,6.78
2022-09-22T01:55:03.042Z,4.85
2022-09-22T02:00:10.697Z,6.13
2022-09-22T02:02:50.562Z,5.68
2022-09-22T02:05:46.625Z,5.63
2022-09-22T02:08:28.199Z,5.75
2022-09-22T02:10:58.842Z,7.50
2022-09-22T02:13:26.030Z,3.53
2022-09-22T02:16:01.711Z,6.75
2022-09-22T02:18:37.302Z,5.68
2022-09-22T02:21:04.898Z,5.85
2022-09-22T02:23:32.199Z,7.30
2022-09-22T02:26:01.931Z,7.32
2022-09-22T02:31:18.490Z,5.47
2022-09-22T02:33:43.301Z,5.57
2022-09-22T02:36:25.073Z,6.78
2022-09-22T02:39:05.733Z,5.80
2022-09-22T02:41:41.236Z,6.15
2022-09-22T02:44:17.816Z,5.38
2022-09-22T02:47:08.756Z,4.22
2022-09-22T02:49:35.929Z,4.32
2022-09-22T02:52:07.934Z,6.20
2022-09-22T02:54:34.495Z,4.30
2022-09-22T02:57:01.008Z,5.13
2022-09-22T02:59:27.557Z,5.20
2022-09-22T03:01:55.799Z,2.75
2022-09-22T03:04:22.704Z,8.05
2022-09-22T03:06:49.330Z,4.00
2022-09-22T03:09:17.621Z,4.93
2022-09-22T03:11:44.495Z,4.95
2022-09-22T03:14:11.117Z,5.05
2022-09-22T03:16:37.718Z,7.47
2022-09-22T03:19:04.656Z,5.82
2022-09-22T03:21:31.217Z,3.85
2022-09-22T03:23:57.767Z,4.93
2022-09-22T03:26:24.484Z,4.55
2022-09-22T03:28:51.057Z,5.43
2022-09-22T03:31:17.664Z,4.43
2022-09-22T03:33:44.236Z,5.95
2022-09-22T03:36:10.812Z,4.53
2022-09-22T03:38:37.360Z,3.17
2022-09-22T03:41:04.128Z,3.67
2022-09-22T03:43:30.822Z,7.80
2022-09-22T03:45:58.614Z,2.67
2022-09-22T03:48:27.036Z,5.65
2022-09-22T03:50:53.648Z,4.13
2022-09-22T03:53:20.216Z,6.20
2022-09-22T03:55:46.926Z,3.88
2022-09-22T03:58:13.586Z,4.05
2022-09-22T04:00:40.109Z,3.67
2022-09-22T04:03:06.942Z,6.38
2022-09-22T04:05:33.500Z,3.67
2022-09-22T04:08:00.156Z,3.63
2022-09-22T04:10:26.934Z,4.35
2022-09-22T04:12:53.527Z,6.93
2022-09-22T04:15:20.102Z,3.63
2022-09-22T04:17:47.072Z,4.80
2022-09-22T04:20:13.697Z,4.85
2022-09-22T04:22:40.352Z,6.93
2022-09-22T04:25:07.781Z,5.53
2022-09-22T04:27:34.281Z,4.88
2022-09-22T04:30:01.510Z,5.25
2022-09-22T04:32:28.024Z,4.55
2022-09-22T04:34:54.663Z,4.75
2022-09-22T04:37:21.181Z,4.78
2022-09-22T04:39:47.747Z,5.80
2022-09-22T04:42:14.268Z,5.80
2022-09-22T04:44:40.937Z,6.43
2022-09-22T04:47:07.443Z,9.63
2022-09-22T04:49:34.017Z,5.93
2022-09-22T04:52:00.733Z,6.75
2022-09-22T04:54:27.307Z,6.10
2022-09-22T04:56:53.812Z,5.20
2022-09-22T04:59:20.546Z,6.35
2022-09-22T05:01:47.160Z,5.38
2022-09-22T05:04:13.842Z,4.68
2022-09-22T05:06:41.685Z,5.57
2022-09-22T05:09:08.282Z,5.78
2022-09-22T05:11:34.870Z,5.20
2022-09-22T05:14:02.156Z,4.75
2022-09-22T05:16:28.719Z,3.65
2022-09-22T05:18:55.828Z,5.18
2022-09-22T05:21:22.324Z,3.72
2022-09-22T05:23:48.943Z,4.93
2022-09-22T05:26:15.529Z,5.60
2022-09-22T05:28:42.886Z,5.68
2022-09-22T05:31:09.422Z,6.32
2022-09-22T05:33:36.823Z,5.43
2022-09-22T05:36:03.593Z,6.07
2022-09-22T05:38:30.163Z,6.13
2022-09-22T05:40:56.736Z,5.60
2022-09-22T05:43:23.277Z,4.82
2022-09-22T05:45:50.035Z,7.18
2022-09-22T05:48:16.724Z,8.85
2022-09-22T05:50:43.946Z,8.48
2022-09-22T05:53:11.365Z,9.50
2022-09-22T05:55:39.658Z,8.88
2022-09-22T05:58:09.136Z,8.23
2022-09-22T06:00:35.763Z,9.80
2022-09-22T06:03:02.510Z,9.57
2022-09-22T06:05:29.180Z,12.55
2022-09-22T06:08:01.745Z,8.10
2022-09-22T06:10:28.745Z,8.95
2022-09-22T06:13:00.206Z,7.93
2022-09-22T06:15:28.551Z,9.93
2022-09-22T06:17:56.207Z,8.48
2022-09-22T06:20:22.820Z,16.20
2022-09-22T06:22:49.500Z,5.90
2022-09-22T06:25:17.066Z,11.10
2022-09-22T06:27:44.055Z,9.77
2022-09-22T06:30:11.744Z,10.45
2022-09-22T06:32:43.797Z,10.52
2022-09-22T06:35:11.400Z,7.90
2022-09-22T06:37:38.639Z,9.52
2022-09-22T06:40:08.254Z,9.80
2022-09-22T06:45:04.533Z,13.27
2022-09-22T06:47:32.899Z,13.25
2022-09-22T06:50:01.315Z,15.38
2022-09-22T06:52:28.963Z,13.20
2022-09-22T06:54:58.483Z,11.13
2022-09-22T06:57:30.400Z,15.10
2022-09-22T06:59:56.907Z,10.95
2022-09-22T07:02:29.466Z,13.88
2022-09-22T07:04:59.306Z,17.42
2022-09-22T07:07:28.753Z,12.50
2022-09-22T07:09:55.828Z,11.10
2022-09-22T07:12:22.455Z,12.68
2022-09-22T07:14:49.576Z,8.75
2022-09-22T07:17:20.252Z,9.57
2022-09-22T07:19:47.137Z,8.38
2022-09-22T07:22:19.129Z,10.95
2022-09-22T07:24:45.924Z,9.30
2022-09-22T07:27:20.367Z,18.17
2022-09-22T07:29:48.793Z,9.40
2022-09-22T07:32:15.618Z,18.67
2022-09-22T07:34:42.205Z,15.90
2022-09-22T07:37:11.289Z,15.25
2022-09-22T07:39:37.836Z,16.05
2022-09-22T07:42:04.613Z,13.55
2022-09-22T07:44:49.715Z,12.57
2022-09-22T07:47:36.257Z,15.15
2022-09-22T07:50:04.664Z,18.20
2022-09-22T07:52:31.287Z,13.05
2022-09-22T07:54:57.829Z,13.82
2022-09-22T07:57:24.395Z,17.60
2022-09-22T07:59:51.071Z,11.82
2022-09-22T08:02:17.631Z,14.35
2022-09-22T08:04:44.189Z,16.45
2022-09-22T08:07:10.748Z,9.07
2022-09-22T08:09:37.291Z,10.93
2022-09-22T08:12:04.063Z,17.73
2022-09-22T08:14:31.074Z,11.80
2022-09-22T08:16:57.616Z,11.73
2022-09-22T08:19:24.318Z,11.68
2022-09-22T08:21:52.887Z,15.23
2022-09-22T08:24:22.000Z,11.93
2022-09-22T08:26:53.013Z,8.23
2022-09-22T08:29:20.572Z,13.52
2022-09-22T08:31:47.660Z,14.68
2022-09-22T08:34:16.515Z,18.85
2022-09-22T08:36:47.005Z,12.35
2022-09-22T08:39:14.515Z,9.82
2022-09-22T08:42:07.984Z,12.95
2022-09-22T08:45:02.677Z,13.35
2022-09-22T08:47:55.705Z,10.13
2022-09-22T08:50:58.154Z,9.73
2022-09-22T08:53:26.866Z,8.93
2022-09-22T08:56:06.920Z,11.37
2022-09-22T08:58:50.390Z,6.82
2022-09-22T09:01:38.295Z,9.95
2022-09-22T09:04:13.850Z,6.35
2022-09-22T09:07:14.523Z,8.00
2022-09-22T09:10:06.078Z,7.70
2022-09-22T09:12:53.334Z,5.53
2022-09-22T09:15:39.247Z,6.70
2022-09-22T09:18:16.030Z,4.68
2022-09-22T09:20:47.945Z,8.57
2022-09-22T09:26:18.627Z,9.00
2022-09-22T09:28:53.857Z,3.65
2022-09-22T09:31:46.114Z,4.15
2022-09-22T09:34:18.014Z,4.55
2022-09-22T09:37:10.249Z,5.88
2022-09-22T09:39:39.531Z,3.63
2022-09-22T09:42:17.547Z,3.90
2022-09-22T09:44:45.194Z,4.95
2022-09-22T09:47:17.334Z,6.78
2022-09-22T09:49:44.069Z,5.43
2022-09-22T09:52:12.774Z,7.43
2022-09-22T09:54:41.439Z,3.60
2022-09-22T09:57:09.887Z,4.23
2022-09-22T09:59:57.010Z,2.92
2022-09-22T10:02:37.552Z,4.07
2022-09-22T10:05:04.529Z,5.10
2022-09-22T10:07:41.824Z,3.95
2022-09-22T10:10:37.745Z,4.95
2022-09-22T10:13:04.326Z,3.38
2022-09-22T10:15:36.484Z,3.47
2022-09-22T10:18:23.528Z,3.90
2022-09-22T10:21:23.678Z,2.50
2022-09-22T10:23:51.662Z,5.28
2022-09-22T10:26:27.106Z,4.57
2022-09-22T10:29:12.304Z,4.28
2022-09-22T10:32:02.781Z,2.80
2022-09-22T10:34:36.500Z,3.33
2022-09-22T10:37:10.991Z,5.10
2022-09-22T10:39:47.348Z,4.40
2022-09-22T10:42:25.798Z,4.70
2022-09-22T10:44:53.620Z,4.53
2022-09-22T10:47:40.636Z,4.35
2022-09-22T10:50:27.784Z,3.45
2022-09-22T10:53:12.837Z,6.53
2022-09-22T10:55:52.891Z,2.17
2022-09-22T10:58:27.391Z,5.38
2022-09-22T11:01:09.288Z,4.28
2022-09-22T11:03:56.637Z,6.43
2022-09-22T11:06:49.036Z,4.43
2022-09-22T11:09:34.294Z,2.22
2022-09-22T11:12:19.110Z,3.42
2022-09-22T11:14:51.943Z,1.73
2022-09-22T11:17:37.486Z,2.33
2022-09-22T11:20:23.084Z,2.92
2022-09-22T11:23:00.919Z,2.38
2022-09-22T11:25:55.417Z,2.25
2022-09-22T11:29:00.202Z,4.00
2022-09-22T11:31:26.957Z,3.85
2022-09-22T11:34:19.694Z,4.63
2022-09-22T11:37:27.380Z,2.50
2022-09-22T11:40:17.596Z,2.55
2022-09-22T11:43:04.735Z,3.20
2022-09-22T11:46:06.329Z,5.70
2022-09-22T11:49:02.169Z,4.10
2022-09-22T11:51:37.631Z,4.18
2022-09-22T11:54:30.117Z,4.07
2022-09-22T11:57:04.736Z,2.80
2022-09-22T11:59:59.437Z,3.15
2022-09-22T12:02:38.498Z,2.25
2022-09-22T12:05:13.209Z,3.33
2022-09-22T12:07:49.529Z,6.47
2022-09-22T12:10:30.207Z,4.97
2022-09-22T12:12:57.106Z,6.55
2022-09-22T12:15:29.447Z,4.35
2022-09-22T12:18:29.458Z,3.83
2022-09-22T12:21:06.593Z,2.40
2022-09-22T12:23:40.866Z,2.88
2022-09-22T12:26:13.330Z,2.75
2022-09-22T12:28:43.128Z,2.50
2022-09-22T12:31:16.038Z,4.28
2022-09-22T12:33:52.136Z,2.13
2022-09-22T12:36:36.716Z,3.10
2022-09-22T12:39:24.233Z,2.88
2022-09-22T12:41:57.868Z,2.08
2022-09-22T12:44:28.538Z,3.65
2022-09-22T12:47:01.835Z,3.15
2022-09-22T12:49:28.618Z,2.17
2022-09-22T12:51:55.180Z,2.28
2022-09-22T12:54:21.750Z,3.50
2022-09-22T12:57:20.412Z,3.42
2022-09-22T13:00:05.765Z,3.28
2022-09-22T13:02:41.155Z,4.85
2022-09-22T13:05:10.704Z,4.95
2022-09-22T13:07:42.906Z,9.23
2022-09-22T13:10:21.961Z,2.10
2022-09-22T13:13:03.646Z,5.88
2022-09-22T13:15:51.880Z,2.53
2022-09-22T13:18:39.892Z,2.25
2022-09-22T13:21:12.904Z,2.28
2022-09-22T13:23:51.753Z,1.70
2022-09-22T13:26:40.599Z,3.72
2022-09-22T13:29:19.144Z,2.25
2022-09-22T13:31:54.349Z,3.70
2022-09-22T13:34:35.874Z,1.95
2022-09-22T13:37:14.936Z,4.35
2022-09-22T13:39:47.412Z,1.73
2022-09-22T13:42:31.646Z,4.60
2022-09-22T13:45:07.784Z,1.30
2022-09-22T13:47:35.443Z,1.40
2022-09-22T13:50:09.335Z,1.58
2022-09-22T13:52:39.325Z,18.38
2022-09-22T13:55:26.153Z,4.43
2022-09-22T13:57:56.192Z,6.95
2022-09-22T14:01:01.498Z,20.48
2022-09-22T14:03:27.793Z,8.15
2022-09-22T14:05:55.804Z,3.85
2022-09-22T14:08:29.716Z,5.72
2022-09-22T14:10:58.346Z,8.85
2022-09-22T14:13:41.108Z,4.78
2022-09-22T14:16:28.164Z,1.20
2022-09-22T14:19:08.922Z,3.38
2022-09-22T14:22:06.889Z,2.25
2022-09-22T14:24:37.651Z,2.88
2022-09-22T14:27:07.707Z,1.42
2022-09-22T14:29:37.456Z,2.40
2022-09-22T14:32:11.873Z,1.40
2022-09-22T14:34:39.970Z,3.00
2022-09-22T14:37:20.532Z,3.28
2022-09-22T14:39:48.081Z,2.17
2022-09-22T14:42:27.614Z,2.33
2022-09-22T14:45:14.006Z,2.58
2022-09-22T14:47:40.848Z,5.95
2022-09-22T14:50:27.300Z,3.15
2022-09-22T14:52:54.088Z,0.63
2022-09-22T14:55:36.033Z,2.35
2022-09-22T14:58:07.653Z,1.45
2022-09-22T15:00:54.463Z,2.78
2022-09-22T15:03:29.640Z,1.30
2022-09-22T15:06:12.985Z,1.30
2022-09-22T15:08:42.184Z,1.48
2022-09-22T15:13:40.279Z,2.08
2022-09-22T15:16:40.397Z,2.03
2022-09-22T15:19:11.969Z,2.83
2022-09-22T15:21:47.767Z,5.32
2022-09-22T15:24:22.133Z,1.88
2022-09-22T15:26:49.008Z,1.85
2022-09-22T15:29:17.321Z,2.05
2022-09-22T15:31:43.971Z,1.88
2022-09-22T15:34:12.751Z,5.45
2022-09-22T15:36:45.830Z,1.85
2022-09-22T15:39:23.642Z,2.28
2022-09-22T15:41:51.811Z,1.88
2022-09-22T15:44:18.346Z,2.15
2022-09-22T15:46:51.357Z,1.60
2022-09-22T15:49:29.739Z,1.10
2022-09-22T15:52:11.149Z,1.48
2022-09-22T15:54:43.482Z,6.05
2022-09-22T15:57:11.561Z,1.17
2022-09-22T15:59:38.496Z,5.60
2022-09-22T16:02:10.764Z,1.58
2022-09-22T16:04:37.378Z,3.13
2022-09-22T16:07:08.341Z,2.78
2022-09-22T16:09:35.502Z,3.75
2022-09-22T16:12:03.138Z,3.53
2022-09-22T16:14:29.687Z,3.60
2022-09-22T16:16:56.366Z,3.90
2022-09-22T16:19:23.157Z,1.10
2022-09-22T16:21:52.052Z,1.17
2022-09-22T16:24:19.405Z,2.10
2022-09-22T16:26:45.939Z,2.88
2022-09-22T16:29:12.518Z,1.50
2022-09-22T16:31:39.346Z,0.93
2022-09-22T16:34:07.172Z,2.22
2022-09-22T16:36:36.136Z,2.00
2022-09-22T16:39:04.024Z,2.30
2022-09-22T16:41:32.937Z,3.33
2022-09-22T16:44:00.350Z,4.30
2022-09-22T16:46:33.491Z,4.85
2022-09-22T16:49:06.025Z,2.40
2022-09-22T16:51:38.157Z,4.07
2022-09-22T16:54:06.969Z,2.75
2022-09-22T16:56:35.654Z,3.63
2022-09-22T16:59:03.034Z,4.93
2022-09-22T17:01:32.241Z,3.63
2022-09-22T17:03:59.035Z,3.28
2022-09-22T17:06:26.453Z,3.47
2022-09-22T17:08:56.873Z,3.03
2022-09-22T17:11:29.787Z,4.70
2022-09-22T17:14:01.402Z,2.63
2022-09-22T17:16:34.292Z,2.63
2022-09-22T17:19:09.147Z,3.30
2022-09-22T17:21:37.637Z,2.30
2022-09-22T17:24:06.241Z,2.92
2022-09-22T17:26:38.701Z,4.37
2022-09-22T17:29:06.515Z,4.78
2022-09-22T17:31:35.862Z,5.25
2022-09-22T17:36:29.822Z,7.03
2022-09-22T17:38:58.734Z,10.02
2022-09-22T17:41:28.140Z,13.65
2022-09-22T17:44:01.325Z,11.30
2022-09-22T17:46:31.293Z,14.35
2022-09-22T17:49:17.811Z,14.43
2022-09-22T17:52:07.529Z,13.52
2022-09-22T17:55:00.705Z,17.00
2022-09-22T17:57:29.794Z,23.60
2022-09-22T17:59:57.467Z,27.55
2022-09-22T18:02:27.112Z,32.38
2022-09-22T18:04:54.087Z,37.60
2022-09-22T18:07:25.512Z,32.55
2022-09-22T18:09:55.381Z,30.98
2022-09-22T18:12:24.759Z,33.90
2022-09-22T18:14:53.414Z,30.17
2022-09-22T18:17:23.811Z,29.87
2022-09-22T18:19:54.127Z,22.92
2022-09-22T18:22:22.086Z,22.10
2022-09-22T18:24:50.214Z,17.63
2022-09-22T18:27:19.355Z,14.55
2022-09-22T18:29:53.223Z,10.38
2022-09-22T18:32:20.300Z,14.98
2022-09-22T18:34:47.539Z,14.07
2022-09-22T18:37:15.669Z,14.80
2022-09-22T18:39:45.259Z,16.95
2022-09-22T18:44:39.317Z,12.18
2022-09-22T18:47:06.256Z,8.25
2022-09-22T18:49:35.880Z,13.93
2022-09-22T18:52:05.163Z,10.30
2022-09-22T18:54:31.804Z,10.60
2022-09-22T18:56:58.589Z,10.57
2022-09-22T18:59:27.129Z,12.95
2022-09-22T19:01:54.031Z,14.15
2022-09-22T19:04:23.006Z,13.18
2022-09-22T19:07:10.850Z,12.10
2022-09-22T19:09:37.952Z,16.30
2022-09-22T19:12:07.960Z,14.63
2022-09-22T19:14:39.158Z,12.48
2022-09-22T19:17:07.450Z,12.35
2022-09-22T19:19:37.084Z,13.50
2022-09-22T19:22:09.218Z,11.68
2022-09-22T19:24:37.182Z,12.20
2022-09-22T19:27:04.988Z,14.63
2022-09-22T19:29:32.693Z,11.25
2022-09-22T19:32:00.825Z,11.20
2022-09-22T19:34:28.594Z,12.85
2022-09-22T19:36:55.930Z,10.95
2022-09-22T19:39:23.527Z,8.60
2022-09-22T19:41:51.857Z,10.13
2022-09-22T19:44:20.970Z,8.18
2022-09-22T19:46:48.480Z,8.65
2022-09-22T19:49:15.831Z,8.48
2022-09-22T19:51:42.688Z,9.63
2022-09-22T19:54:09.425Z,9.98
2022-09-22T19:56:36.434Z,8.60
2022-09-22T19:59:04.075Z,7.93
2022-09-22T20:01:33.863Z,6.65
2022-09-22T20:04:00.656Z,7.68
2022-09-22T20:06:28.010Z,8.68
2022-09-22T20:09:02.760Z,5.45
2022-09-22T20:11:40.752Z,7.05
2022-09-22T20:14:22.605Z,6.72
2022-09-22T20:17:01.914Z,6.78
2022-09-22T20:19:31.381Z,9.35
2022-09-22T20:22:16.867Z,5.45
2022-09-22T20:24:45.168Z,7.00
2022-09-22T20:27:11.813Z,10.93
2022-09-22T20:29:38.357Z,8.82
2022-09-22T20:32:05.145Z,8.10
2022-09-22T20:34:31.773Z,8.10
2022-09-22T20:36:58.518Z,6.50
2022-09-22T20:39:25.049Z,6.72
2022-09-22T20:41:52.841Z,8.68
2022-09-22T20:44:19.405Z,5.82
2022-09-22T20:46:47.806Z,9.13
2022-09-22T20:49:14.670Z,7.57
2022-09-22T20:51:42.337Z,5.05
2022-09-22T20:54:09.197Z,6.32
2022-09-22T20:56:39.408Z,6.70
2022-09-22T20:59:08.690Z,7.18
2022-09-22T21:01:35.717Z,7.53
2022-09-22T21:04:03.975Z,6.57
2022-09-22T21:06:31.048Z,8.48
2022-09-22T21:09:16.961Z,7.03
2022-09-22T21:11:44.202Z,9.43
2022-09-22T21:14:11.184Z,8.40
2022-09-22T21:16:39.829Z,8.93
2022-09-22T21:19:07.364Z,6.57
2022-09-22T21:21:38.322Z,7.13
2022-09-22T21:24:05.762Z,9.02
2022-09-22T21:26:33.065Z,10.73
2022-09-22T21:29:00.110Z,8.20
2022-09-22T21:31:27.269Z,9.48
2022-09-22T21:33:54.094Z,9.55
2022-09-22T21:36:24.677Z,7.95
2022-09-22T21:38:57.199Z,6.68
2022-09-22T21:41:27.558Z,11.32
2022-09-22T21:43:55.117Z,8.93
2022-09-22T21:46:28.691Z,6.97
2022-09-22T21:49:01.034Z,9.35
2022-09-22T21:51:36.342Z,8.38
2022-09-22T21:54:04.846Z,9.35
2022-09-22T21:56:33.653Z,8.63
2022-09-22T21:59:02.549Z,9.20
2022-09-22T22:01:35.874Z,6.53
2022-09-22T22:04:07.874Z,6.97
2022-09-22T22:06:40.831Z,7.70
2022-09-22T22:09:11.392Z,8.32
2022-09-22T22:11:54.674Z,7.05
2022-09-22T22:14:22.596Z,6.82
2022-09-22T22:16:51.620Z,7.05
2022-09-22T22:19:20.674Z,10.18
2022-09-22T22:21:50.367Z,8.20
2022-09-22T22:24:39.278Z,7.70
2022-09-22T22:27:09.703Z,9.75
2022-09-22T22:29:38.656Z,6.82
2022-09-22T22:32:06.973Z,7.07
2022-09-22T22:34:34.093Z,9.55
2022-09-22T22:37:01.077Z,8.43
2022-09-22T22:39:28.350Z,7.40
2022-09-22T22:41:55.249Z,5.50
2022-09-22T22:44:22.509Z,7.85
2022-09-22T22:46:49.120Z,4.93
2022-09-22T22:49:15.845Z,6.03
2022-09-22T22:51:43.411Z,8.15
2022-09-22T22:54:11.757Z,6.55
2022-09-22T22:56:43.227Z,5.32
2022-09-22T22:59:11.758Z,6.50
2022-09-22T23:01:40.258Z,7.90
2022-09-22T23:04:11.122Z,7.32
2022-09-22T23:06:40.290Z,7.97
2022-09-22T23:09:08.474Z,6.85
2022-09-22T23:11:37.667Z,6.93
2022-09-22T23:14:07.460Z,7.22
2022-09-22T23:16:37.690Z,9.52
2022-09-22T23:19:07.760Z,6.47
2022-09-22T23:21:35.351Z,7.25
2022-09-22T23:24:02.802Z,6.80
2022-09-22T23:26:29.768Z,6.82
2022-09-22T23:28:58.502Z,5.43
2022-09-22T23:31:25.942Z,7.95
2022-09-22T23:33:52.868Z,7.18
2022-09-22T23:36:24.537Z,6.40
2022-09-22T23:38:56.038Z,5.95
2022-09-22T23:41:22.806Z,7.97
2022-09-22T23:43:49.817Z,7.85
2022-09-22T23:46:16.690Z,6.97
2022-09-22T23:48:43.342Z,5.50
2022-09-22T23:51:10.347Z,6.93
2022-09-22T23:53:37.759Z,6.93
2022-09-22T23:56:06.250Z,9.65
2022-09-22T23:58:33.638Z,5.57
